Terminal Aerodrome Forecast
Issued by NWS Newport/Morehead City, NC

Home | Current Version | Previous Version | Graphics & Text | Print | Product List | Glossary On
Versions: 1 2 3 4 5 6 7 8 9 10 11 12 13 14 15 16 17
000
FTUS42 KMHX 240804 AAA
TAFEWN
TAF AMD
KEWN 240804Z 2408/2506 00000KT P6SM SKC
      TEMPO 2409/2412 3SM BR
     FM241200 12005KT P6SM SKC
     FM241600 14008KT P6SM SCT070=

USA.gov is the U.S. government's official web portal to all federal, state and local government web resources and services.